M I D A S
Marine Information and Data Acquisition System
Tripno 2222 of the Zeeleeuw from 2011-12-12 08:06:00 to 2011-12-12 15:59:30
Back to CruiseResearch ActivitiesStationsMapUnderway DataData graphs

EquipmentUnitsComments
TimeDGPSUTC
LatitudeDGPSDM.mWGS84
LongitudeDGPSDM.mWGS84
SpeedMeteo Stationm/sRelative wind speed
DirectionMeteo StationdegRelative wind direction
TemperatureMeteo Stationdeg CelciusAir temperature
PressureMeteo StationPaAtmospheric pressure
HumidityMeteo Station%Relative humidity
Missing or incorrect values are displayed as -999
Metereological data collected by the RV Zeeleeuw from 2011-12-12 08:09:47 to 2011-12-12 16:17:40
Time Latitude Longitude Speed Direction Temperature Pressure Humidity
2011-12-12 08:10 51°15.598 2°53.724 12.3 27 8 100440 47
2011-12-12 08:11 51°15.744 2°53.541 12.6 27 8 100430 46
2011-12-12 08:12 51°15.897 2°53.375 17.7 22 7.9 100440 46
2011-12-12 08:13 51°16.054 2°53.216 16.2 21 8 100450 46
2011-12-12 08:14 51°16.212 2°53.078 16.1 22 8 100440 45
2011-12-12 08:15 51°16.368 2°52.938 17.2 23 8 100450 46
2011-12-12 08:16 51°16.528 2°52.805 15.8 26 8 100440 46
2011-12-12 08:17 51°16.697 2°52.711 4.8 24 8 100450 47
2011-12-12 08:18 51°16.863 2°52.62 12.2 25 8 100440 47
2011-12-12 08:19 51°17.025 2°52.524 14.6 21 8 100440 47
2011-12-12 08:20 51°17.187 2°52.431 14.1 24 7.9 100430 47
2011-12-12 08:21 51°17.348 2°52.336 16.1 24 7.9 100450 46
2011-12-12 08:22 51°17.503 2°52.2 7.4 23 7.9 100460 45
2011-12-12 08:23 51°17.653 2°52.079 17.3 20 7.9 100470 46
2011-12-12 08:24 51°17.797 2°51.95 11.9 22 7.9 100460 47
2011-12-12 08:25 51°17.951 2°51.818 13.3 21 7.9 100470 46
2011-12-12 08:26 51°18.107 2°51.687 17 25 7.9 100440 44
2011-12-12 08:27 51°18.267 2°51.551 16.9 22 7.9 100460 45
2011-12-12 08:28 51°18.425 2°51.41 13.8 21 7.9 100460 45
2011-12-12 08:29 51°18.585 2°51.275 12 23 8 100470 47
2011-12-12 08:30 51°18.736 2°51.15 19.6 24 7.9 100470 46
2011-12-12 08:31 51°18.889 2°51.012 16.7 27 7.9 100460 45
2011-12-12 08:32 51°19.044 2°50.882 14.4 21 8 100480 47
2011-12-12 08:33 51°19.194 2°50.747 14.5 24 8 100460 47
2011-12-12 08:34 51°19.347 2°50.612 18.2 26 7.9 100460 46
2011-12-12 08:35 51°19.505 2°50.479 15.4 24 7.9 100460 46
2011-12-12 08:36 51°19.668 2°50.329 13 25 7.9 100480 46
2011-12-12 08:37 51°19.838 2°50.195 15.4 21 8 100470 47
2011-12-12 08:38 51°20.009 2°50.074 7.5 27 8 100470 48
2011-12-12 08:39 51°20.166 2°49.95 11.5 24 8 100470 47
2011-12-12 08:40 51°20.33 2°49.819 16.9 21 7.9 100480 48
2011-12-12 08:41 51°20.489 2°49.692 13.2 23 7.9 100470 48
2011-12-12 08:42 51°20.65 2°49.562 13.6 25 7.9 100470 47
2011-12-12 08:43 51°20.814 2°49.428 12.9 22 7.9 100480 47
2011-12-12 08:44 51°20.978 2°49.297 12.5 22 7.9 100450 48
2011-12-12 08:45 51°21.141 2°49.168 13.5 22 7.9 100480 48
2011-12-12 08:46 51°21.307 2°49.033 8.7 24 7.9 100490 47
2011-12-12 08:47 51°21.471 2°48.912 6.9 24 7.9 100470 47
2011-12-12 08:48 51°21.635 2°48.779 13.4 25 7.9 100480 47
2011-12-12 08:49 51°21.803 2°48.644 7.3 23 7.9 100480 47
2011-12-12 08:50 51°21.967 2°48.528 11.6 23 7.8 100480 47
2011-12-12 08:51 51°22.131 2°48.403 11.6 25 7.9 100480 48
2011-12-12 08:52 51°22.299 2°48.277 16.9 22 7.8 100460 47
2011-12-12 08:53 51°22.468 2°48.146 14.7 19 7.8 100450 48
2011-12-12 08:54 51°22.627 2°48.028 12.4 27 7.9 100470 48
2011-12-12 08:55 51°22.784 2°47.901 16.2 21 7.8 100470 47
2011-12-12 08:56 51°22.947 2°47.769 7.4 26 7.8 100460 47
2011-12-12 08:57 51°23.123 2°47.649 12.3 18 7.8 100450 46
2011-12-12 08:58 51°23.289 2°47.543 13.6 21 7.8 100470 48
2011-12-12 08:59 51°23.459 2°47.429 10.3 26 7.9 100470 49
2011-12-12 09:00 51°23.631 2°47.307 11 23 7.8 100470 49
2011-12-12 09:01 51°23.802 2°47.192 14.4 23 7.9 100470 49
2011-12-12 09:02 51°23.97 2°47.08 6.5 24 7.9 100480 48
2011-12-12 09:03 51°24.14 2°46.969 12.8 25 7.9 100480 47
2011-12-12 09:04 51°24.308 2°46.849 12 25 7.9 100480 48
2011-12-12 09:05 51°24.48 2°46.733 10.7 25 7.9 100480 47
2011-12-12 09:06 51°24.648 2°46.62 14.2 21 8 100470 48
2011-12-12 09:07 51°24.817 2°46.512 10.1 22 7.9 100480 47
2011-12-12 09:08 51°24.988 2°46.4 11 20 7.9 100480 47
2011-12-12 09:09 51°25.159 2°46.288 15 23 7.9 100490 47
2011-12-12 09:10 51°25.325 2°46.18 6.5 25 7.9 100480 45
2011-12-12 09:11 51°25.496 2°46.073 13.2 22 8 100480 47
2011-12-12 09:12 51°25.664 2°45.963 6.5 24 8 100500 47
2011-12-12 09:13 51°25.833 2°45.86 14.7 22 8 100510 48
2011-12-12 09:14 51°26.004 2°45.756 16.4 24 8 100500 47
2011-12-12 09:15 51°26.177 2°45.639 12.1 22 8 100490 46
2011-12-12 09:16 51°26.344 2°45.53 13.6 22 8.1 100490 47
2011-12-12 09:17 51°26.506 2°45.42 14.4 24 8.2 100510 48
2011-12-12 09:18 51°26.675 2°45.312 13.1 21 8.1 100490 48
2011-12-12 09:19 51°26.843 2°45.187 12.6 23 8.1 100490 47
2011-12-12 09:20 51°27.015 2°45.059 14.1 20 8.1 100500 48
2011-12-12 09:21 51°27.184 2°44.942 15.6 22 8.1 100510 47
2011-12-12 09:22 51°27.346 2°44.831 10 22 8.2 100510 48
2011-12-12 09:23 51°27.52 2°44.709 13.1 20 8.1 100510 47
2011-12-12 09:24 51°27.689 2°44.589 11.8 24 8.1 100520 47
2011-12-12 09:25 51°27.857 2°44.471 11.3 25 8.1 100510 46
2011-12-12 09:26 51°28.027 2°44.348 13.3 23 8.1 100510 46
2011-12-12 09:27 51°28.199 2°44.234 11.4 25 8.1 100510 45
2011-12-12 09:28 51°28.368 2°44.117 10.5 27 8.2 100500 46
2011-12-12 09:29 51°28.537 2°43.998 14.5 21 8.2 100500 47
2011-12-12 09:30 51°28.707 2°43.886 6.8 23 8.2 100520 46
2011-12-12 09:31 51°28.871 2°43.774 14.1 19 8.2 100490 46
2011-12-12 09:32 51°29.041 2°43.658 7.1 26 8.3 100510 46
2011-12-12 09:33 51°29.211 2°43.537 10.3 25 8.3 100520 46
2011-12-12 09:34 51°29.373 2°43.425 14 20 8.3 100510 47
2011-12-12 09:35 51°29.544 2°43.31 12.1 22 8.3 100530 46
2011-12-12 09:36 51°29.718 2°43.288 8.7 252 8.3 100520 47
2011-12-12 09:37 51°29.891 2°43.367 7.1 254 8.3 100550 47
2011-12-12 09:38 51°30.06 2°43.451 10.9 253 8.4 100520 47
2011-12-12 09:39 51°30.231 2°43.525 8 259 8.4 100540 47
2011-12-12 09:40 51°30.401 2°43.608 9 250 8.5 100550 47
2011-12-12 09:41 51°30.569 2°43.695 9.5 256 8.5 100520 48
2011-12-12 09:42 51°30.74 2°43.778 7.9 261 8.4 100540 47
2011-12-12 09:43 51°30.91 2°43.867 10.4 259 8.4 100540 45
2011-12-12 09:44 51°31.082 2°43.948 10.2 253 8.4 100540 45
2011-12-12 09:45 51°31.253 2°44.035 10.4 257 8.4 100550 47
2011-12-12 09:46 51°31.426 2°44.117 9.4 256 8.4 100550 46
2011-12-12 09:47 51°31.596 2°44.204 10.7 251 8.5 100530 47
2011-12-12 09:48 51°31.766 2°44.287 8.6 254 8.4 100530 46
2011-12-12 09:49 51°31.936 2°44.373 6.5 264 8.4 100540 46
2011-12-12 09:50 51°32.103 2°44.459 9.8 262 8.5 100540 46
2011-12-12 09:51 51°32.275 2°44.534 11.3 257 8.4 100530 46
2011-12-12 09:52 51°32.445 2°44.614 9.4 260 8.4 100550 46
2011-12-12 09:53 51°32.614 2°44.694 8 261 8.5 100540 47
2011-12-12 09:54 51°32.783 2°44.788 10 263 8.5 100550 47
2011-12-12 09:55 51°32.954 2°44.873 12.8 255 8.5 100540 47
2011-12-12 09:56 51°33.126 2°44.958 6.1 259 8.5 100560 47
2011-12-12 09:57 51°33.297 2°45.04 10.5 257 8.5 100560 47
2011-12-12 09:58 51°33.468 2°45.126 8.8 260 8.4 100530 45
2011-12-12 09:59 51°33.637 2°45.214 9.9 256 8.5 100550 46
2011-12-12 10:00 51°33.807 2°45.296 8.3 251 8.5 100540 47
2011-12-12 10:01 51°33.976 2°45.375 8 259 8.5 100560 47
2011-12-12 10:02 51°34.149 2°45.463 10.4 257 8.5 100560 48
2011-12-12 10:03 51°34.316 2°45.544 10 258 8.5 100560 48
2011-12-12 10:04 51°34.487 2°45.626 9.7 261 8.6 100550 49
2011-12-12 10:05 51°34.659 2°45.709 15.1 258 8.6 100560 48
2011-12-12 10:06 51°34.831 2°45.786 9.6 262 8.5 100550 46
2011-12-12 10:07 51°35.003 2°45.867 9.6 261 8.5 100560 47
2011-12-12 10:08 51°35.178 2°45.941 9.7 262 8.5 100560 47
2011-12-12 10:09 51°35.35 2°46.021 13 264 8.4 100570 47
2011-12-12 10:10 51°35.523 2°46.097 8.7 258 8.5 100560 48
2011-12-12 10:11 51°35.692 2°46.197 7.8 270 8.5 100560 47
2011-12-12 10:12 51°35.851 2°46.341 9.7 262 8.5 100580 49
2011-12-12 10:13 51°36.007 2°46.485 10.9 259 8.4 100580 48
2011-12-12 10:14 51°36.168 2°46.623 8.3 264 8.4 100580 46
2011-12-12 10:15 51°36.331 2°46.749 6.1 266 8.4 100570 48
2011-12-12 10:16 51°36.492 2°46.875 8.3 259 8.4 100570 48
2011-12-12 10:17 51°36.652 2°47.005 10.5 261 8.5 100570 50
2011-12-12 10:18 51°36.811 2°47.143 9.3 262 8.5 100560 47
2011-12-12 10:19 51°36.975 2°47.255 8.6 261 8.5 100570 47
2011-12-12 10:20 51°37.141 2°47.369 8.1 258 8.5 100550 48
2011-12-12 10:21 51°37.313 2°47.462 8.1 262 8.4 100560 47
2011-12-12 10:22 51°37.481 2°47.563 8.4 256 8.4 100560 47
2011-12-12 10:23 51°37.651 2°47.664 9.1 264 8.4 100550 47
2011-12-12 10:24 51°37.82 2°47.768 6.5 262 8.4 100550 48
2011-12-12 10:25 51°37.985 2°47.886 7.9 270 8.4 100550 47
2011-12-12 10:26 51°38.142 2°48.029 6.2 264 8.4 100560 47
2011-12-12 10:27 51°38.307 2°48.161 6.4 263 8.4 100550 48
2011-12-12 10:28 51°38.468 2°48.286 9 262 8.3 100580 47
2011-12-12 10:29 51°38.634 2°48.399 4.9 261 8.4 100560 48
2011-12-12 10:30 51°38.805 2°48.501 7 260 8.3 100560 47
2011-12-12 10:31 51°38.971 2°48.606 7.3 262 8.4 100560 49
2011-12-12 10:32 51°39.145 2°48.691 6 259 8.4 100530 48
2011-12-12 10:33 51°39.318 2°48.767 10.1 260 8.5 100530 49
2011-12-12 10:34 51°39.489 2°48.859 10.2 258 8.5 100550 49
2011-12-12 10:35 51°39.662 2°48.941 7.9 258 8.5 100550 48
2011-12-12 10:36 51°39.835 2°49.021 10.6 253 8.5 100530 47
2011-12-12 10:37 51°40.007 2°49.112 10.1 260 8.5 100530 48
2011-12-12 10:38 51°40.181 2°49.193 10.6 254 8.6 100540 49
2011-12-12 10:39 51°40.347 2°49.292 9.8 257 8.5 100540 48
2011-12-12 10:40 51°40.515 2°49.403 11 260 8.5 100520 48
2011-12-12 10:41 51°40.686 2°49.518 9.9 256 8.5 100540 49
2011-12-12 10:42 51°40.852 2°49.616 4.1 251 8.5 100530 47
2011-12-12 10:43 51°41.024 2°49.719 8.8 260 8.5 100530 48
2011-12-12 10:44 51°41.197 2°49.817 12.5 259 8.5 100540 49
2011-12-12 10:45 51°41.369 2°49.915 8.9 253 8.5 100530 49
2011-12-12 10:46 51°41.543 2°49.978 12.2 20 8.6 100520 48
2011-12-12 10:47 51°41.7 2°49.85 14.9 21 8.6 100500 49
2011-12-12 10:48 51°41.825 2°49.626 15.9 23 8.5 100470 47
2011-12-12 10:49 51°41.939 2°49.411 15.3 20 8.5 100520 49
2011-12-12 10:50 51°42.048 2°49.171 15.5 25 8.5 100510 49
2011-12-12 10:51 51°42.158 2°48.926 10.6 26 8.5 100510 49
2011-12-12 10:52 51°42.265 2°48.691 15.9 24 8.4 100500 50
2011-12-12 10:53 51°42.375 2°48.455 13.8 23 8.4 100480 49
2011-12-12 10:54 51°42.362 2°48.183 15.4 337 8.4 100520 50
2011-12-12 10:55 51°42.204 2°48.028 8.2 348 8.2 100460 49
2011-12-12 10:56 51°42.012 2°47.95 8 346 8.2 100480 51
2011-12-12 10:57 51°41.821 2°47.877 19.7 353 8.1 100470 50
2011-12-12 10:58 51°41.622 2°47.799 16.5 349 8.1 100510 50
2011-12-12 10:59 51°41.424 2°47.721 15.5 348 8.1 100510 50
2011-12-12 11:00 51°41.236 2°47.643 5.5 352 8.1 100470 51
2011-12-12 11:01 51°41.041 2°47.552 18.2 351 8.2 100500 51
2011-12-12 11:02 51°40.851 2°47.445 13 352 8.2 100460 51
2011-12-12 11:03 51°40.66 2°47.337 18.5 352 8.2 100500 50
2011-12-12 11:04 51°40.474 2°47.233 19.5 349 8.2 100470 51
2011-12-12 11:05 51°40.283 2°47.124 13.1 348 8.2 100500 50
2011-12-12 11:06 51°40.098 2°47.016 14.3 353 8.1 100470 50
2011-12-12 11:07 51°39.915 2°46.896 7.1 347 8.2 100490 51
2011-12-12 11:08 51°39.721 2°46.775 18.3 348 8.2 100490 52
2011-12-12 11:09 51°39.532 2°46.67 17.6 353 8.1 100520 49
2011-12-12 11:10 51°39.346 2°46.562 12.4 349 8.2 100520 52
2011-12-12 11:11 51°39.163 2°46.447 7.3 345 8.2 100530 51
2011-12-12 11:12 51°38.968 2°46.337 17.2 350 8.2 100510 51
2011-12-12 11:13 51°38.789 2°46.235 15.8 349 8.2 100490 51
2011-12-12 11:14 51°38.608 2°46.125 14.2 353 8.2 100500 50
2011-12-12 11:15 51°38.428 2°46.019 13.2 352 8.1 100500 49
2011-12-12 11:16 51°38.243 2°45.91 17.6 351 8.3 100520 52
2011-12-12 11:17 51°38.057 2°45.802 17.3 352 8.3 100500 53
2011-12-12 11:18 51°37.869 2°45.684 19.3 351 8.3 100510 51
2011-12-12 11:19 51°37.679 2°45.573 20.6 352 8.2 100510 51
2011-12-12 11:20 51°37.497 2°45.468 7.6 354 8.1 100520 50
2011-12-12 11:21 51°37.31 2°45.357 12.4 352 8.1 100510 51
2011-12-12 11:22 51°37.124 2°45.248 7.9 352 8.1 100510 50
2011-12-12 11:23 51°36.933 2°45.142 12.7 353 8 100500 50
2011-12-12 11:24 51°36.738 2°45.04 15.3 353 8.1 100500 52
2011-12-12 11:25 51°36.556 2°44.946 16.5 358 8.1 100520 51
2011-12-12 11:26 51°36.36 2°44.852 18.7 356 8 100490 51
2011-12-12 11:27 51°36.176 2°44.755 11.5 353 8.1 100530 52
2011-12-12 11:28 51°35.99 2°44.658 15.9 356 8.1 100490 53
2011-12-12 11:29 51°35.806 2°44.561 14.6 355 8.1 100540 52
2011-12-12 11:30 51°35.619 2°44.464 13.2 359 8.1 100490 52
2011-12-12 11:31 51°35.436 2°44.368 17.1 356 8.1 100520 52
2011-12-12 11:32 51°35.251 2°44.279 11.9 352 8 100530 51
2011-12-12 11:33 51°35.062 2°44.182 8.3 356 8 100520 51
2011-12-12 11:34 51°34.88 2°44.089 19.1 358 8 100500 51
2011-12-12 11:35 51°34.693 2°43.998 15.3 357 8.1 100530 52
2011-12-12 11:36 51°34.516 2°43.909 18.8 354 8 100510 52
2011-12-12 11:37 51°34.332 2°43.818 7.2 351 8 100520 50
2011-12-12 11:38 51°34.147 2°43.727 10.7 355 8.1 100530 52
2011-12-12 11:39 51°33.966 2°43.636 12.5 355 8 100510 51
2011-12-12 11:40 51°33.784 2°43.541 16.9 356 7.9 100500 51
2011-12-12 11:41 51°33.603 2°43.456 17.4 355 8.1 100520 52
2011-12-12 11:42 51°33.428 2°43.342 14 349 8 100520 51
2011-12-12 11:43 51°33.321 2°43.122 8.9 342 8 100530 52
2011-12-12 11:44 51°33.22 2°42.894 18 340 8 100540 52
2011-12-12 11:45 51°33.127 2°42.656 22.8 342 8.1 100530 53
2011-12-12 11:46 51°33.035 2°42.41 15.4 339 7.9 100530 51
2011-12-12 11:47 51°32.946 2°42.176 18.5 340 8 100560 53
2011-12-12 11:48 51°32.851 2°41.93 14.1 338 7.9 100530 51
2011-12-12 11:49 51°32.753 2°41.685 11.1 338 8 100570 53
2011-12-12 11:50 51°32.662 2°41.451 13.4 339 7.9 100540 53
2011-12-12 11:51 51°32.625 2°41.187 9.2 331 7.9 100580 52
2011-12-12 11:52 51°32.671 2°40.939 21.4 318 7.9 100570 53
2011-12-12 11:53 51°32.835 2°40.82 14.6 243 7.8 100550 53
2011-12-12 11:54 51°33.028 2°40.889 7.4 260 7.9 100580 53
2011-12-12 11:55 51°33.222 2°40.998 9.8 252 7.9 100580 53
2011-12-12 11:56 51°33.408 2°41.109 11.8 254 7.9 100590 52
2011-12-12 11:57 51°33.599 2°41.232 4.4 252 8 100590 53
2011-12-12 11:58 51°33.791 2°41.358 11.6 257 8.1 100600 54
2011-12-12 11:59 51°33.977 2°41.481 10.1 253 8.1 100590 53
2011-12-12 12:00 51°34.167 2°41.62 10.5 255 8.1 100610 53
2011-12-12 12:01 51°34.355 2°41.751 8.5 256 8.1 100590 53
2011-12-12 12:02 51°34.545 2°41.882 10.3 258 8.2 100610 52
2011-12-12 12:03 51°34.734 2°42.007 7.3 251 8.2 100590 53
2011-12-12 12:04 51°34.921 2°42.15 10.3 252 8.2 100590 52
2011-12-12 12:05 51°35.113 2°42.27 8.4 22 8.2 100590 52
2011-12-12 12:06 51°35.308 2°42.373 9.9 249 8.2 100600 51
2011-12-12 12:07 51°35.504 2°42.484 9 253 8.2 100590 52
2011-12-12 12:08 51°35.702 2°42.589 9.8 257 8.2 100590 53
2011-12-12 12:09 51°35.901 2°42.705 8.5 255 8.3 100600 52
2011-12-12 12:10 51°36.095 2°42.81 9 252 8.2 100600 53
2011-12-12 12:11 51°36.297 2°42.905 10.3 250 8.2 100590 52
2011-12-12 12:12 51°36.495 2°42.981 11.9 247 8.2 100590 53
2011-12-12 12:13 51°36.695 2°43.062 5.7 22 8.2 100590 52
2011-12-12 12:14 51°36.895 2°43.145 4.4 247 8.2 100600 52
2011-12-12 12:15 51°37.095 2°43.223 8.5 249 8.1 100590 52
2011-12-12 12:16 51°37.297 2°43.306 9.3 250 8.1 100590 51
2011-12-12 12:17 51°37.5 2°43.381 10.9 250 8.1 100580 51
2011-12-12 12:18 51°37.705 2°43.463 9 249 8.1 100600 51
2011-12-12 12:19 51°37.904 2°43.539 10.3 252 8.2 100590 51
2011-12-12 12:20 51°38.108 2°43.622 13.2 251 8.2 100590 51
2011-12-12 12:21 51°38.308 2°43.692 10.3 252 8.2 100580 52
2011-12-12 12:22 51°38.508 2°43.766 10.7 250 8.2 100570 52
2011-12-12 12:23 51°38.708 2°43.851 9.6 253 8.2 100580 52
2011-12-12 12:24 51°38.914 2°43.936 6.1 255 8.2 100570 52
2011-12-12 12:25 51°39.114 2°44.017 13.9 248 8.2 100570 52
2011-12-12 12:26 51°39.318 2°44.095 10.5 249 8.2 100590 51
2011-12-12 12:27 51°39.525 2°44.176 12.7 253 8.2 100580 51
2011-12-12 12:28 51°39.725 2°44.255 11.7 247 8.3 100580 52
2011-12-12 12:29 51°39.935 2°44.324 11.6 251 8.3 100570 51
2011-12-12 12:30 51°40.135 2°44.408 5.5 247 8.3 100600 51
2011-12-12 12:31 51°40.343 2°44.508 8.6 19 8.4 100590 52
2011-12-12 12:32 51°40.539 2°44.62 10.1 20 8.4 100570 51
2011-12-12 12:33 51°40.742 2°44.732 11.3 254 8.4 100580 52
2011-12-12 12:34 51°40.947 2°44.829 12.2 251 8.5 100570 52
2011-12-12 12:35 51°41.146 2°44.93 10.3 251 8.5 100560 52
2011-12-12 12:36 51°41.348 2°45.043 9.5 19 8.4 100570 50
2011-12-12 12:37 51°41.549 2°45.153 9.5 253 8.4 100580 49
2011-12-12 12:38 51°41.757 2°45.264 10.6 255 8.5 100560 50
2011-12-12 12:39 51°41.957 2°45.367 12.9 251 8.5 100560 51
2011-12-12 12:40 51°42.159 2°45.468 10.8 251 8.5 100560 50
2011-12-12 12:41 51°42.363 2°45.581 12 254 8.5 100570 50
2011-12-12 12:42 51°42.569 2°45.677 11.4 251 8.5 100560 50
2011-12-12 12:43 51°42.772 2°45.783 11.7 249 8.6 100590 50
2011-12-12 12:44 51°42.973 2°45.883 9.5 253 8.5 100560 51
2011-12-12 12:45 51°43.179 2°45.993 8.5 252 8.5 100560 49
2011-12-12 12:46 51°43.382 2°46.097 11.9 24 8.6 100560 50
2011-12-12 12:47 51°43.539 2°45.967 15.5 316 8.5 100540 48
2011-12-12 12:48 51°43.636 2°45.745 14.6 323 8.6 100560 49
2011-12-12 12:49 51°43.741 2°45.52 15.2 318 8.6 100540 49
2011-12-12 12:50 51°43.85 2°45.298 13.3 320 8.5 100550 48
2011-12-12 12:51 51°43.957 2°45.077 14.6 318 8.5 100540 48
2011-12-12 12:52 51°44.068 2°44.842 7.9 316 8.5 100560 48
2011-12-12 12:53 51°44.176 2°44.625 18.8 319 8.6 100540 49
2011-12-12 12:54 51°44.2 2°44.382 14.9 339 8.6 100550 49
2011-12-12 12:55 51°44.059 2°44.293 14.5 357 8.5 100500 48
2011-12-12 12:56 51°43.906 2°44.171 11.5 346 8.4 100520 48
2011-12-12 12:57 51°43.744 2°44.073 12.8 356 8.5 100540 49
2011-12-12 12:58 51°43.582 2°44.003 14.2 355 8.4 100470 50
2011-12-12 12:59 51°43.418 2°43.916 14.3 354 8.4 100520 48
2011-12-12 13:00 51°43.248 2°43.833 7.4 352 8.5 100510 48
2011-12-12 13:01 51°43.084 2°43.761 13.9 357 8.5 100510 47
2011-12-12 13:02 51°42.923 2°43.686 10.1 356 8.5 100500 47
2011-12-12 13:03 51°42.756 2°43.609 13.2 354 8.6 100550 50
2011-12-12 13:04 51°42.591 2°43.535 11 355 8.6 100530 49
2011-12-12 13:05 51°42.429 2°43.464 7.9 353 8.6 100510 50
2011-12-12 13:06 51°42.27 2°43.384 7.4 352 8.6 100510 49
2011-12-12 13:07 51°42.109 2°43.308 8.6 357 8.5 100520 48
2011-12-12 13:08 51°41.943 2°43.235 13.1 349 8.6 100530 49
2011-12-12 13:09 51°41.78 2°43.16 7.7 351 8.6 100490 50
2011-12-12 13:10 51°41.614 2°43.085 13 355 8.5 100520 47
2011-12-12 13:11 51°41.452 2°43.017 7.5 354 8.5 100500 46
2011-12-12 13:12 51°41.29 2°42.945 16.6 352 8.6 100540 50
2011-12-12 13:13 51°41.13 2°42.872 13.3 354 8.7 100510 50
2011-12-12 13:14 51°40.964 2°42.797 10.6 352 8.5 100510 49
2011-12-12 13:15 51°40.801 2°42.724 7.8 353 8.5 100550 48
2011-12-12 13:16 51°40.637 2°42.641 7.5 352 8.5 100530 50
2011-12-12 13:17 51°40.47 2°42.566 13.2 354 8.5 100530 49
2011-12-12 13:18 51°40.306 2°42.489 15.3 353 8.5 100540 49
2011-12-12 13:19 51°40.142 2°42.41 7.8 352 8.6 100540 51
2011-12-12 13:20 51°39.984 2°42.329 7.2 348 8.6 100550 52
2011-12-12 13:21 51°39.832 2°42.238 14.8 349 8.5 100520 50
2011-12-12 13:22 51°39.675 2°42.147 19.8 351 8.4 100500 48
2011-12-12 13:23 51°39.515 2°42.052 12.5 352 8.5 100540 49
2011-12-12 13:24 51°39.357 2°41.96 15.9 348 8.5 100550 50
2011-12-12 13:25 51°39.198 2°41.872 19.3 349 8.5 100520 50
2011-12-12 13:26 51°39.044 2°41.781 15.5 349 8.4 100520 49
2011-12-12 13:27 51°38.886 2°41.681 18.5 351 8.5 100550 52
2011-12-12 13:28 51°38.727 2°41.594 13.3 350 8.3 100550 51
2011-12-12 13:29 51°38.569 2°41.524 17 353 8.3 100540 49
2011-12-12 13:30 51°38.416 2°41.433 13.3 352 8.3 100560 50
2011-12-12 13:31 51°38.259 2°41.341 10.6 350 8.3 100520 49
2011-12-12 13:32 51°38.103 2°41.252 4.4 350 8.3 100540 49
2011-12-12 13:33 51°37.947 2°41.169 16.7 349 8.3 100550 49
2011-12-12 13:34 51°37.795 2°41.076 15.9 349 8.4 100550 49
2011-12-12 13:35 51°37.635 2°40.984 7.5 351 8.4 100520 50
2011-12-12 13:36 51°37.481 2°40.906 6.7 351 8.4 100550 49
2011-12-12 13:37 51°37.327 2°40.814 14.3 350 8.5 100580 49
2011-12-12 13:38 51°37.171 2°40.723 12.9 348 8.5 100550 48
2011-12-12 13:39 51°37.011 2°40.639 7.4 350 8.6 100530 48
2011-12-12 13:40 51°36.865 2°40.554 18 347 8.6 100580 49
2011-12-12 13:41 51°36.712 2°40.464 15.8 351 8.6 100570 48
2011-12-12 13:42 51°36.561 2°40.385 18 353 8.5 100540 48
2011-12-12 13:43 51°36.405 2°40.305 7.1 347 8.6 100540 49
2011-12-12 13:44 51°36.257 2°40.229 16.7 346 8.6 100570 49
2011-12-12 13:45 51°36.104 2°40.138 12.3 350 8.6 100550 49
2011-12-12 13:46 51°35.948 2°40.059 7.7 351 8.7 100570 47
2011-12-12 13:47 51°35.794 2°39.987 20.4 350 8.7 100570 48
2011-12-12 13:48 51°35.636 2°39.9 15.1 350 8.7 100520 46
2011-12-12 13:49 51°35.479 2°39.819 7.7 350 8.7 100550 46
2011-12-12 13:50 51°35.322 2°39.73 7.8 350 8.8 100580 47
2011-12-12 13:51 51°35.166 2°39.653 8.5 349 8.7 100530 46
2011-12-12 13:52 51°35.007 2°39.568 11 347 8.7 100570 47
2011-12-12 13:53 51°34.852 2°39.488 7.9 349 8.7 100570 47
2011-12-12 13:54 51°34.699 2°39.404 7.5 349 8.7 100580 47
2011-12-12 13:55 51°34.542 2°39.321 14.5 346 8.8 100580 49
2011-12-12 13:56 51°34.39 2°39.237 9.8 345 8.7 100570 47
2011-12-12 13:57 51°34.236 2°39.149 18.6 345 8.7 100600 48
2011-12-12 13:58 51°34.079 2°39.064 19.2 346 8.7 100600 49
2011-12-12 13:59 51°33.925 2°38.981 16.3 345 8.7 100600 49
2011-12-12 14:00 51°33.769 2°38.896 17.2 344 8.7 100610 49
2011-12-12 14:01 51°33.617 2°38.816 18.1 343 8.7 100590 50
2011-12-12 14:02 51°33.463 2°38.729 5.9 345 8.6 100590 47
2011-12-12 14:03 51°33.308 2°38.648 7.3 346 8.6 100590 47
2011-12-12 14:04 51°33.159 2°38.562 8 350 8.6 100580 47
2011-12-12 14:05 51°33.003 2°38.476 7.8 350 8.7 100590 48
2011-12-12 14:06 51°32.847 2°38.391 7.3 348 8.7 100610 48
2011-12-12 14:07 51°32.696 2°38.309 8.2 347 8.7 100590 48
2011-12-12 14:08 51°32.539 2°38.219 7.7 346 8.6 100600 46
2011-12-12 14:09 51°32.382 2°38.137 18.2 347 8.6 100600 45
2011-12-12 14:10 51°32.222 2°38.055 17.5 347 8.6 100580 47
2011-12-12 14:11 51°32.067 2°37.98 15 347 8.7 100600 47
2011-12-12 14:12 51°31.916 2°37.903 7.5 344 8.6 100620 46
2011-12-12 14:13 51°31.76 2°37.815 14.2 346 8.7 100600 47
2011-12-12 14:14 51°31.606 2°37.742 12.8 347 8.7 100610 46
2011-12-12 14:15 51°31.451 2°37.668 16.2 345 8.7 100610 46
2011-12-12 14:16 51°31.298 2°37.592 14.8 347 8.7 100630 48
2011-12-12 14:17 51°31.148 2°37.509 6.9 345 8.7 100600 48
2011-12-12 14:18 51°30.996 2°37.435 12.6 344 8.7 100620 46
2011-12-12 14:19 51°30.844 2°37.355 14.3 343 8.8 100610 47
2011-12-12 14:20 51°30.688 2°37.27 14.6 347 8.8 100610 46
2011-12-12 14:21 51°30.537 2°37.19 7.5 346 8.8 100620 47
2011-12-12 14:22 51°30.382 2°37.109 15.8 343 8.9 100630 48
2011-12-12 14:23 51°30.231 2°37.028 12 345 8.9 100600 47
2011-12-12 14:24 51°30.077 2°36.948 21.3 346 8.9 100620 48
2011-12-12 14:25 51°29.929 2°36.866 17.1 343 8.9 100590 48
2011-12-12 14:26 51°29.779 2°36.786 11.2 343 8.9 100620 48
2011-12-12 14:27 51°29.624 2°36.708 7.9 346 9 100630 49
2011-12-12 14:28 51°29.469 2°36.625 7.9 341 8.9 100620 47
2011-12-12 14:29 51°29.317 2°36.534 5.7 344 8.9 100630 48
2011-12-12 14:30 51°29.165 2°36.462 7.2 347 8.9 100630 47
2011-12-12 14:31 51°29.001 2°36.57 11 5 9 100640 47
2011-12-12 14:32 51°28.849 2°36.765 9.8 9 8.9 100670 47
2011-12-12 14:33 51°28.696 2°36.953 12 5 9 100640 49
2011-12-12 14:34 51°28.543 2°37.134 10.4 5 9 100620 47
2011-12-12 14:35 51°28.386 2°37.323 6.5 8 8.9 100640 45
2011-12-12 14:36 51°28.239 2°37.518 11.4 6 9 100640 48
2011-12-12 14:37 51°28.086 2°37.716 12.5 9 9 100640 46
2011-12-12 14:38 51°27.939 2°37.922 11.4 8 9.1 100650 46
2011-12-12 14:39 51°27.794 2°38.124 9.4 6 9.1 100660 47
2011-12-12 14:40 51°27.646 2°38.334 8.6 7 9.1 100650 49
2011-12-12 14:41 51°27.5 2°38.54 10.7 5 9.1 100640 49
2011-12-12 14:42 51°27.359 2°38.745 9.9 8 9 100650 47
2011-12-12 14:43 51°27.215 2°38.952 11.9 1 9 100650 48
2011-12-12 14:44 51°27.07 2°39.159 12 7 8.9 100640 49
2011-12-12 14:45 51°26.924 2°39.374 13.1 8 8.9 100650 47
2011-12-12 14:46 51°26.781 2°39.578 10.7 6 9 100640 47
2011-12-12 14:47 51°26.633 2°39.787 8.3 4 8.9 100650 47
2011-12-12 14:48 51°26.486 2°39.996 10.6 6 9 100670 48
2011-12-12 14:49 51°26.347 2°40.208 9.9 6 9 100660 49
2011-12-12 14:50 51°26.21 2°40.437 12.5 9 8.9 100660 46
2011-12-12 14:51 51°26.064 2°40.661 9.4 6 9 100660 49
2011-12-12 14:52 51°25.934 2°40.899 11.9 7 8.9 100670 47
2011-12-12 14:53 51°25.806 2°41.153 7.6 11 9 100670 48
2011-12-12 14:54 51°25.699 2°41.384 9.9 15 9 100690 46
2011-12-12 14:55 51°25.597 2°41.605 10.2 15 9 100700 48
2011-12-12 14:56 51°25.496 2°41.819 10 11 9.1 100690 49
2011-12-12 14:57 51°25.395 2°42.035 10.5 10 9 100690 49
2011-12-12 14:58 51°25.288 2°42.254 11.2 10 9 100690 47
2011-12-12 14:59 51°25.178 2°42.5 9.3 10 9 100690 47
2011-12-12 15:00 51°25.054 2°42.763 9.7 16 9 100690 48
2011-12-12 15:01 51°24.916 2°42.986 12.6 10 9 100670 47
2011-12-12 15:02 51°24.773 2°43.208 9.2 8 9.1 100680 49
2011-12-12 15:03 51°24.626 2°43.436 9.4 7 9.1 100680 48
2011-12-12 15:04 51°24.476 2°43.647 11.7 11 9.1 100720 47
2011-12-12 15:05 51°24.327 2°43.858 10.2 8 9.1 100690 49
2011-12-12 15:06 51°24.177 2°44.063 11.6 10 9.1 100710 48
2011-12-12 15:07 51°24.022 2°44.277 12.8 8 9.1 100690 47
2011-12-12 15:08 51°23.869 2°44.484 11.6 9 9.1 100710 47
2011-12-12 15:09 51°23.717 2°44.695 10.4 8 9.2 100720 47
2011-12-12 15:10 51°23.569 2°44.903 12.5 9 9.2 100740 48
2011-12-12 15:11 51°23.42 2°45.115 14.3 10 9.2 100720 48
2011-12-12 15:12 51°23.306 2°45.39 10 12 9.2 100740 48
2011-12-12 15:13 51°23.206 2°45.678 10.8 17 9.2 100750 47
2011-12-12 15:14 51°23.099 2°45.954 7.7 16 9.2 100730 49
2011-12-12 15:15 51°22.99 2°46.225 6.4 9 9.1 100760 49
2011-12-12 15:16 51°22.867 2°46.494 7.3 9 9.1 100730 49
2011-12-12 15:17 51°22.739 2°46.741 9.6 4 9.2 100730 50
2011-12-12 15:18 51°22.589 2°46.934 9.3 2 9.1 100710 47
2011-12-12 15:19 51°22.426 2°47.11 12.9 7 9.1 100710 48
2011-12-12 15:20 51°22.265 2°47.286 8.6 6 9.2 100710 48
2011-12-12 15:21 51°22.1 2°47.471 11.1 5 9.1 100710 48
2011-12-12 15:22 51°21.938 2°47.654 8 5 9.2 100730 48
2011-12-12 15:23 51°21.778 2°47.836 11.2 359 9.2 100720 48
2011-12-12 15:24 51°21.613 2°48.021 9.7 5 9.2 100710 47
2011-12-12 15:25 51°21.444 2°48.202 9.2 1 9.2 100730 48
2011-12-12 15:26 51°21.283 2°48.382 8.8 3 9.2 100740 48
2011-12-12 15:27 51°21.118 2°48.57 10.3 3 9.2 100740 48
2011-12-12 15:28 51°20.959 2°48.75 8.7 1 9.2 100730 49
2011-12-12 15:29 51°20.799 2°48.937 12.3 2 9.2 100740 49
2011-12-12 15:30 51°20.64 2°49.13 10.9 4 9.2 100730 48
2011-12-12 15:31 51°20.481 2°49.309 11 4 9.3 100740 50
2011-12-12 15:32 51°20.319 2°49.494 10.3 2 9.2 100760 49
2011-12-12 15:33 51°20.156 2°49.672 11.4 -999 9.2 100760 50
2011-12-12 15:34 51°19.998 2°49.851 12.2 -999 9.2 100750 48
2011-12-12 15:35 51°19.839 2°50.036 8.7 4 9.3 100740 50
2011-12-12 15:36 51°19.675 2°50.214 10.7 -999 9.2 100740 49
2011-12-12 15:37 51°19.515 2°50.385 10.6 2 9.3 100730 49
2011-12-12 15:38 51°19.35 2°50.565 9.9 5 9.3 100730 48
2011-12-12 15:39 51°19.19 2°50.738 9.7 2 9.3 100740 48
2011-12-12 15:40 51°19.025 2°50.902 12.1 1 9.3 100740 49
2011-12-12 15:41 51°18.855 2°51.067 11.4 359 9.3 100730 49
2011-12-12 15:42 51°18.696 2°51.233 11.7 1 9.3 100740 50
2011-12-12 15:43 51°18.523 2°51.384 11.1 358 9.4 100740 49
2011-12-12 15:44 51°18.354 2°51.518 10.9 358 9.3 100720 50
2011-12-12 15:45 51°18.177 2°51.649 15.3 353 9.3 100720 52
2011-12-12 15:46 51°18.008 2°51.788 11 354 9.2 100720 51
2011-12-12 15:47 51°17.842 2°51.928 6.1 352 9.1 100720 52
2011-12-12 15:48 51°17.669 2°52.065 11.9 353 9.1 100710 51
2011-12-12 15:49 51°17.499 2°52.197 15.7 349 9 100720 52
2011-12-12 15:50 51°17.328 2°52.336 14.7 352 9 100730 50
2011-12-12 15:51 51°17.16 2°52.469 10.4 346 9 100730 49
2011-12-12 15:52 51°16.987 2°52.608 13 344 8.9 100740 51
2011-12-12 15:53 51°16.818 2°52.74 13.5 342 8.7 100750 49
2011-12-12 15:54 51°16.644 2°52.887 13 343 8.7 100750 49
2011-12-12 15:55 51°16.466 2°53.014 12.3 340 8.6 100760 50
2011-12-12 15:56 51°16.29 2°53.134 12.5 340 8.5 100770 51
2011-12-12 15:57 51°16.107 2°53.262 13.2 338 8.4 100770 51
2011-12-12 15:58 51°15.935 2°53.396 12.3 342 8.3 100770 50
2011-12-12 15:59 51°15.767 2°53.567 12.5 346 8.1 100770 50
2011-12-12 16:00 51°15.614 2°53.769 11.6 346 8 100770 50
2011-12-12 16:01 51°15.462 2°53.971 11 345 7.9 100770 51
2011-12-12 16:02 51°15.311 2°54.166 12.3 341 7.9 100760 52
2011-12-12 16:03 51°15.155 2°54.358 12 347 7.8 100760 51
2011-12-12 16:04 51°14.999 2°54.556 10.6 345 7.8 100770 51
2011-12-12 16:05 51°14.839 2°54.742 10.7 342 7.8 100760 51
2011-12-12 16:06 51°14.677 2°54.919 9.9 343 7.7 100780 49
2011-12-12 16:07 51°14.512 2°55.077 9.2 344 7.6 100780 49
2011-12-12 16:08 51°14.339 2°55.244 8.9 339 7.7 100780 50
2011-12-12 16:09 51°14.193 2°55.369 7.1 339 7.7 100810 49
2011-12-12 16:10 51°14.071 2°55.459 5.3 337 7.7 100810 50
2011-12-12 16:11 51°13.953 2°55.542 6 337 7.6 100820 48
2011-12-12 16:12 51°13.836 2°55.626 7 336 7.5 100820 50
2011-12-12 16:13 51°13.744 2°55.732 4.5 348 7.4 100830 49
2011-12-12 16:14 51°13.69 2°55.846 4.4 358 7.3 100840 51
2011-12-12 16:15 51°13.655 2°55.94 5.5 359 7.2 100840 49
2011-12-12 16:16 51°13.639 2°56.011 3.7 5 7.2 100850 51